createdAt,value
2023-02-09T00:02:00.569Z,92.80
2023-02-09T00:04:25.775Z,92.30
2023-02-09T00:06:50.410Z,93.00
2023-02-09T00:09:15.193Z,92.80
2023-02-09T00:11:58.840Z,92.50
2023-02-09T00:14:23.563Z,92.20
2023-02-09T00:16:51.085Z,91.90
2023-02-09T00:19:16.439Z,91.50
2023-02-09T00:21:41.815Z,91.00
2023-02-09T00:24:07.465Z,90.80
2023-02-09T00:26:32.121Z,90.70
2023-02-09T00:28:58.177Z,90.80
2023-02-09T00:31:22.951Z,90.50
2023-02-09T00:33:47.667Z,90.50
2023-02-09T00:36:14.355Z,90.20
2023-02-09T00:38:39.060Z,90.10
2023-02-09T00:41:04.158Z,89.80
2023-02-09T00:43:29.095Z,89.50
2023-02-09T00:45:55.412Z,89.90
2023-02-09T00:48:20.407Z,90.10
2023-02-09T00:50:45.491Z,90.40
2023-02-09T00:53:10.371Z,89.70
2023-02-09T00:55:38.907Z,90.20
2023-02-09T00:58:04.946Z,90.50
2023-02-09T01:00:29.921Z,91.30
2023-02-09T01:02:57.650Z,91.20
2023-02-09T01:05:22.858Z,91.00
2023-02-09T01:07:47.472Z,90.70
2023-02-09T01:10:12.475Z,90.60
2023-02-09T01:12:39.851Z,90.90
2023-02-09T01:15:04.598Z,91.40
2023-02-09T01:17:29.363Z,91.30
2023-02-09T01:19:56.675Z,91.40
2023-02-09T01:22:21.120Z,91.40
2023-02-09T01:24:46.648Z,91.90
2023-02-09T01:27:12.667Z,91.70
2023-02-09T01:29:37.452Z,91.70
2023-02-09T01:32:02.202Z,91.60
2023-02-09T01:34:26.962Z,91.80
2023-02-09T01:36:52.878Z,91.60
2023-02-09T01:39:18.386Z,91.80
2023-02-09T01:41:43.585Z,91.80
2023-02-09T01:44:29.574Z,91.30
2023-02-09T01:46:54.293Z,91.20
2023-02-09T01:49:21.543Z,91.00
2023-02-09T01:51:50.246Z,91.00
2023-02-09T01:54:22.497Z,90.90
2023-02-09T01:56:52.564Z,91.20
2023-02-09T01:59:18.056Z,91.10
2023-02-09T02:01:44.580Z,90.90
2023-02-09T02:04:09.806Z,91.10
2023-02-09T02:06:34.547Z,91.00
2023-02-09T02:09:03.545Z,90.70
2023-02-09T02:11:29.969Z,91.00
2023-02-09T02:13:54.613Z,91.50
2023-02-09T02:16:51.867Z,91.60
2023-02-09T02:19:45.797Z,92.00
2023-02-09T02:22:36.692Z,91.90
2023-02-09T02:25:30.366Z,91.40
2023-02-09T02:28:10.633Z,91.40
2023-02-09T02:30:59.487Z,91.90
2023-02-09T02:33:37.396Z,91.00
2023-02-09T02:36:07.971Z,92.10
2023-02-09T02:38:37.528Z,92.10
2023-02-09T02:41:14.114Z,92.80
2023-02-09T02:43:45.505Z,92.90
2023-02-09T02:46:16.907Z,92.50
2023-02-09T02:48:47.806Z,93.10
2023-02-09T02:51:18.435Z,93.00
2023-02-09T02:53:48.820Z,92.60
2023-02-09T02:56:19.314Z,92.60
2023-02-09T02:58:47.708Z,92.40
2023-02-09T03:01:16.206Z,92.60
2023-02-09T03:03:44.625Z,92.60
2023-02-09T03:06:11.672Z,92.70
2023-02-09T03:08:50.446Z,93.10
2023-02-09T03:11:15.467Z,93.10
2023-02-09T03:13:47.048Z,92.70
2023-02-09T03:16:21.928Z,92.90
2023-02-09T03:19:00.549Z,92.80
2023-02-09T03:21:33.608Z,92.70
2023-02-09T03:24:04.683Z,92.30
2023-02-09T03:26:34.330Z,92.00
2023-02-09T03:29:00.392Z,92.50
2023-02-09T03:31:26.138Z,92.20
2023-02-09T03:33:53.337Z,92.50
2023-02-09T03:36:19.664Z,92.20
2023-02-09T03:38:44.567Z,92.20
2023-02-09T03:41:09.095Z,93.00
2023-02-09T03:43:51.120Z,93.50
2023-02-09T03:46:15.784Z,94.10
2023-02-09T03:48:40.385Z,94.80
2023-02-09T03:51:07.257Z,95.20
2023-02-09T03:53:31.716Z,95.40
2023-02-09T03:55:56.379Z,95.90
2023-02-09T03:58:20.886Z,96.30
2023-02-09T04:00:46.614Z,96.80
2023-02-09T04:03:11.269Z,97.40
2023-02-09T04:05:36.198Z,97.30
2023-02-09T04:08:02.212Z,97.40
2023-02-09T04:10:26.866Z,97.50
2023-02-09T04:12:51.363Z,97.70
2023-02-09T04:15:16.007Z,97.90
2023-02-09T04:17:40.500Z,98.50
2023-02-09T04:20:05.771Z,98.90
2023-02-09T04:22:30.257Z,98.80
2023-02-09T04:24:57.236Z,99.40
2023-02-09T04:27:22.090Z,99.30
2023-02-09T04:29:47.785Z,99.90
2023-02-09T04:32:12.611Z,99.80
2023-02-09T04:34:37.476Z,99.70
2023-02-09T04:37:02.063Z,98.80
2023-02-09T04:39:26.697Z,98.40
2023-02-09T04:41:52.705Z,98.20
2023-02-09T04:44:17.188Z,97.30
2023-02-09T04:46:42.125Z,97.30
2023-02-09T04:49:07.596Z,97.80
2023-02-09T04:51:32.161Z,98.00
2023-02-09T04:53:56.888Z,98.60
2023-02-09T04:56:21.582Z,99.10
2023-02-09T04:59:05.086Z,99.70
2023-02-09T05:01:30.046Z,99.90
2023-02-09T05:03:55.141Z,99.90
2023-02-09T05:06:20.415Z,99.90
2023-02-09T05:08:45.644Z,99.90
2023-02-09T05:11:10.546Z,99.90
2023-02-09T05:13:35.449Z,99.90
2023-02-09T05:16:01.361Z,99.90
2023-02-09T05:18:26.548Z,99.90
2023-02-09T05:20:51.468Z,99.90
2023-02-09T05:23:16.253Z,99.90
2023-02-09T05:25:41.153Z,99.90
2023-02-09T05:28:06.310Z,99.90
2023-02-09T05:30:31.697Z,99.90
2023-02-09T05:32:58.016Z,99.90
2023-02-09T05:35:22.735Z,99.90
2023-02-09T05:37:47.419Z,99.90
2023-02-09T05:40:13.936Z,99.90
2023-02-09T05:42:38.696Z,99.90
2023-02-09T05:45:03.332Z,99.60
2023-02-09T05:47:29.838Z,98.50
2023-02-09T05:49:55.888Z,97.90
2023-02-09T05:52:21.409Z,97.30
2023-02-09T05:54:46.157Z,96.00
2023-02-09T05:57:11.468Z,95.70
2023-02-09T05:59:36.269Z,95.70
2023-02-09T06:02:01.497Z,95.90
2023-02-09T06:04:26.670Z,95.00
2023-02-09T06:06:53.136Z,94.80
2023-02-09T06:09:19.459Z,94.70
2023-02-09T06:11:44.023Z,94.40
2023-02-09T06:14:08.615Z,94.10
2023-02-09T06:16:33.358Z,93.40
2023-02-09T06:18:58.032Z,93.20
2023-02-09T06:21:22.602Z,93.60
2023-02-09T06:23:48.753Z,92.80
2023-02-09T06:26:15.801Z,92.40
2023-02-09T06:28:41.030Z,92.10
2023-02-09T06:31:06.278Z,92.20
2023-02-09T06:33:31.181Z,91.80
2023-02-09T06:35:55.797Z,91.80
2023-02-09T06:38:20.402Z,90.80
2023-02-09T06:40:47.396Z,91.40
2023-02-09T06:43:12.173Z,90.70
2023-02-09T06:45:40.613Z,90.60
2023-02-09T06:48:06.368Z,90.60
2023-02-09T06:50:31.120Z,90.90
2023-02-09T06:52:55.872Z,89.60
2023-02-09T06:55:20.590Z,89.90
2023-02-09T06:57:46.828Z,89.00
2023-02-09T07:00:13.031Z,88.10
2023-02-09T07:02:37.666Z,88.70
2023-02-09T07:05:02.230Z,86.90
2023-02-09T07:07:28.565Z,87.50
2023-02-09T07:09:53.436Z,85.60
2023-02-09T07:12:18.223Z,85.30
2023-02-09T07:14:46.016Z,88.70
2023-02-09T07:17:10.641Z,83.60
2023-02-09T07:19:35.228Z,81.10
2023-02-09T07:21:59.818Z,81.00
2023-02-09T07:24:24.798Z,79.50
2023-02-09T07:26:49.382Z,80.20
2023-02-09T07:29:13.949Z,79.30
2023-02-09T07:31:40.501Z,78.40
2023-02-09T07:34:05.423Z,79.50
2023-02-09T07:36:30.442Z,79.60
2023-02-09T07:39:00.197Z,79.00
2023-02-09T07:41:27.915Z,79.00
2023-02-09T07:43:54.309Z,78.80
2023-02-09T07:46:25.848Z,78.70
2023-02-09T07:48:55.457Z,76.90
2023-02-09T07:51:55.301Z,77.40
2023-02-09T07:54:52.522Z,76.60
2023-02-09T07:57:32.127Z,76.30
2023-02-09T07:59:57.970Z,76.30
2023-02-09T08:02:48.982Z,75.50
2023-02-09T08:05:24.150Z,74.70
2023-02-09T08:07:50.149Z,75.00
2023-02-09T08:10:26.674Z,74.60
2023-02-09T08:13:01.067Z,75.80
2023-02-09T08:15:26.450Z,76.20
2023-02-09T08:17:54.372Z,76.10
2023-02-09T08:20:25.051Z,75.60
2023-02-09T08:22:57.492Z,74.50
2023-02-09T08:25:23.872Z,74.90
2023-02-09T08:27:49.085Z,75.50
2023-02-09T08:30:20.947Z,75.40
2023-02-09T08:32:56.869Z,74.40
2023-02-09T08:35:24.045Z,74.60
2023-02-09T08:37:51.398Z,74.40
2023-02-09T08:40:24.197Z,74.10
2023-02-09T08:42:49.082Z,73.20
2023-02-09T08:45:13.788Z,73.80
2023-02-09T08:47:38.998Z,74.60
2023-02-09T08:50:03.977Z,75.00
2023-02-09T08:52:30.095Z,75.40
2023-02-09T08:54:54.724Z,75.20
2023-02-09T08:57:19.268Z,75.80
2023-02-09T08:59:44.028Z,75.40
2023-02-09T09:02:08.652Z,75.40
2023-02-09T09:04:33.608Z,74.30
2023-02-09T09:06:58.304Z,74.10
2023-02-09T09:09:25.000Z,74.20
2023-02-09T09:11:49.990Z,74.20
2023-02-09T09:14:14.639Z,73.70
2023-02-09T09:16:39.412Z,73.50
2023-02-09T09:19:06.521Z,73.70
2023-02-09T09:21:31.009Z,73.30
2023-02-09T09:23:55.608Z,73.30
2023-02-09T09:26:21.831Z,73.80
2023-02-09T09:28:47.060Z,73.30
2023-02-09T09:31:12.718Z,73.20
2023-02-09T09:33:37.639Z,73.70
2023-02-09T09:36:03.228Z,73.40
2023-02-09T09:38:27.914Z,72.70
2023-02-09T09:40:52.695Z,72.10
2023-02-09T09:43:26.089Z,71.20
2023-02-09T09:45:51.959Z,70.70
2023-02-09T09:48:24.669Z,71.50
2023-02-09T09:50:50.205Z,72.10
2023-02-09T09:53:19.285Z,71.90
2023-02-09T09:55:46.200Z,71.40
2023-02-09T09:58:20.359Z,72.00
2023-02-09T10:00:44.929Z,71.90
2023-02-09T10:03:16.235Z,72.80
2023-02-09T10:05:41.765Z,72.90
2023-02-09T10:08:13.173Z,73.80
2023-02-09T10:10:43.689Z,73.80
2023-02-09T10:13:17.507Z,73.60
2023-02-09T10:15:49.044Z,72.40
2023-02-09T10:18:17.073Z,72.10
2023-02-09T10:20:45.417Z,72.20
2023-02-09T10:23:17.534Z,71.80
2023-02-09T10:25:54.212Z,70.40
2023-02-09T10:28:23.000Z,70.10
2023-02-09T10:30:53.153Z,69.60
2023-02-09T10:33:17.975Z,69.70
2023-02-09T10:35:46.611Z,70.00
2023-02-09T10:38:18.851Z,69.80
2023-02-09T10:40:44.215Z,68.30
2023-02-09T10:43:25.911Z,68.50
2023-02-09T10:45:57.795Z,69.60
2023-02-09T10:48:24.527Z,68.20
2023-02-09T10:50:51.927Z,69.50
2023-02-09T10:53:22.492Z,69.30
2023-02-09T10:55:47.608Z,68.70
2023-02-09T10:58:22.155Z,69.00
2023-02-09T11:00:52.221Z,68.70
2023-02-09T11:03:22.200Z,70.50
2023-02-09T11:05:48.727Z,70.70
2023-02-09T11:08:19.039Z,70.60
2023-02-09T11:10:51.424Z,70.30
2023-02-09T11:13:22.468Z,69.00
2023-02-09T11:16:00.301Z,69.10
2023-02-09T11:18:30.150Z,69.40
2023-02-09T11:21:00.766Z,69.80
2023-02-09T11:23:40.168Z,70.20
2023-02-09T11:26:10.643Z,70.80
2023-02-09T11:28:48.831Z,70.30
2023-02-09T11:31:51.846Z,70.10
2023-02-09T11:34:51.869Z,70.30
2023-02-09T11:37:22.665Z,70.80
2023-02-09T11:39:55.070Z,71.60
2023-02-09T11:42:43.517Z,71.20
2023-02-09T11:45:12.412Z,72.30
2023-02-09T11:47:50.855Z,72.20
2023-02-09T11:50:25.915Z,72.10
2023-02-09T11:52:54.058Z,71.20
2023-02-09T11:55:29.048Z,70.20
2023-02-09T11:57:59.921Z,69.60
2023-02-09T12:00:29.169Z,70.10
2023-02-09T12:03:00.732Z,70.90
2023-02-09T12:05:28.217Z,70.90
2023-02-09T12:08:15.843Z,72.10
2023-02-09T12:10:46.675Z,72.80
2023-02-09T12:13:27.357Z,73.30
2023-02-09T12:15:53.736Z,72.80
2023-02-09T12:18:21.302Z,73.80
2023-02-09T12:20:55.882Z,73.50
2023-02-09T12:23:32.028Z,71.70
2023-02-09T12:26:00.020Z,71.70
2023-02-09T12:28:45.166Z,71.10
2023-02-09T12:31:28.470Z,70.60
2023-02-09T12:34:21.867Z,70.10
2023-02-09T12:37:28.472Z,69.50
2023-02-09T12:40:22.935Z,70.00
2023-02-09T12:43:04.292Z,70.50
2023-02-09T12:45:37.025Z,70.90
2023-02-09T12:48:12.610Z,69.50
2023-02-09T12:50:52.464Z,70.20
2023-02-09T12:53:47.168Z,70.20
2023-02-09T12:56:33.682Z,70.90
2023-02-09T12:59:14.375Z,71.20
2023-02-09T13:02:06.191Z,70.90
2023-02-09T13:04:36.306Z,70.90
2023-02-09T13:07:04.216Z,70.30
2023-02-09T13:09:36.569Z,70.40
2023-02-09T13:12:11.729Z,69.90
2023-02-09T13:14:38.839Z,69.90
2023-02-09T13:17:29.421Z,70.40
2023-02-09T13:20:16.906Z,71.60
2023-02-09T13:22:54.444Z,71.00
2023-02-09T13:25:30.013Z,71.80
2023-02-09T13:27:55.573Z,72.40
2023-02-09T13:30:28.062Z,73.20
2023-02-09T13:33:03.055Z,72.80
2023-02-09T13:35:32.033Z,73.70
2023-02-09T13:37:58.474Z,74.50
2023-02-09T13:40:26.687Z,75.10
2023-02-09T13:43:00.524Z,73.80
2023-02-09T13:45:28.276Z,74.10
2023-02-09T13:47:53.157Z,73.40
2023-02-09T13:50:20.524Z,72.40
2023-02-09T13:52:45.393Z,73.80
2023-02-09T13:55:13.072Z,73.90
2023-02-09T13:57:42.167Z,75.20
2023-02-09T14:00:15.119Z,75.60
2023-02-09T14:02:50.430Z,76.30
2023-02-09T14:05:26.705Z,76.40
2023-02-09T14:07:52.588Z,75.30
2023-02-09T14:10:19.968Z,76.20
2023-02-09T14:12:56.523Z,77.10
2023-02-09T14:15:41.780Z,77.30
2023-02-09T14:18:33.555Z,77.00
2023-02-09T14:21:10.744Z,75.90
2023-02-09T14:23:50.398Z,76.80
2023-02-09T14:26:30.215Z,76.30
2023-02-09T14:29:08.556Z,75.40
2023-02-09T14:31:37.948Z,75.20
2023-02-09T14:34:03.448Z,74.70
2023-02-09T14:36:34.725Z,74.20
2023-02-09T14:39:13.648Z,73.80
2023-02-09T14:41:43.070Z,74.20
2023-02-09T14:44:22.044Z,74.00
2023-02-09T14:46:51.984Z,74.00
2023-02-09T14:49:16.525Z,73.90
2023-02-09T14:51:41.459Z,73.60
2023-02-09T14:54:19.172Z,73.40
2023-02-09T14:56:44.105Z,73.40
2023-02-09T14:59:12.338Z,74.30
2023-02-09T15:01:38.747Z,74.60
2023-02-09T15:04:03.317Z,75.10
2023-02-09T15:06:33.114Z,74.90
2023-02-09T15:08:57.701Z,74.80
2023-02-09T15:11:42.881Z,74.80
2023-02-09T15:14:09.684Z,75.60
2023-02-09T15:16:34.559Z,75.40
2023-02-09T15:19:01.122Z,76.10
2023-02-09T15:21:26.383Z,76.50
2023-02-09T15:23:51.307Z,76.30
2023-02-09T15:26:17.837Z,76.40
2023-02-09T15:28:42.372Z,76.30
2023-02-09T15:31:06.943Z,76.60
2023-02-09T15:33:31.523Z,76.20
2023-02-09T15:35:59.646Z,76.60
2023-02-09T15:38:24.716Z,77.60
2023-02-09T15:41:08.211Z,78.40
2023-02-09T15:43:50.218Z,78.90
2023-02-09T15:46:32.997Z,78.80
2023-02-09T15:48:57.622Z,79.30
2023-02-09T15:51:25.233Z,78.50
2023-02-09T15:53:50.686Z,77.80
2023-02-09T15:56:15.948Z,78.30
2023-02-09T15:58:43.428Z,78.20
2023-02-09T16:01:08.511Z,77.90
2023-02-09T16:03:33.505Z,77.50
2023-02-09T16:06:01.720Z,77.80
2023-02-09T16:08:30.364Z,78.00
2023-02-09T16:10:55.685Z,78.30
2023-02-09T16:13:21.216Z,78.60
2023-02-09T16:15:46.188Z,78.90
2023-02-09T16:18:10.988Z,78.90
2023-02-09T16:20:36.042Z,79.40
2023-02-09T16:23:18.658Z,79.70
2023-02-09T16:25:48.175Z,79.80
2023-02-09T16:28:15.232Z,80.30
2023-02-09T16:30:49.264Z,80.00
2023-02-09T16:33:16.986Z,80.00
2023-02-09T16:35:42.073Z,80.10
2023-02-09T16:38:17.407Z,80.10
2023-02-09T16:40:42.169Z,80.40
2023-02-09T16:43:12.443Z,80.00
2023-02-09T16:45:38.845Z,80.10
2023-02-09T16:48:03.923Z,79.70
2023-02-09T16:50:32.972Z,79.60
2023-02-09T16:52:58.060Z,79.80
2023-02-09T16:55:26.516Z,79.40
2023-02-09T16:57:54.674Z,79.30
2023-02-09T17:00:21.444Z,79.20
2023-02-09T17:02:51.096Z,79.30
2023-02-09T17:05:20.423Z,79.40
2023-02-09T17:07:54.460Z,79.30
2023-02-09T17:10:21.475Z,79.50
2023-02-09T17:12:46.478Z,79.60
2023-02-09T17:15:28.515Z,80.00
2023-02-09T17:17:58.457Z,80.60
2023-02-09T17:20:24.873Z,80.80
2023-02-09T17:22:52.170Z,80.30
2023-02-09T17:25:17.821Z,80.20
2023-02-09T17:27:42.419Z,80.10
2023-02-09T17:30:08.749Z,80.30
2023-02-09T17:32:33.572Z,80.60
2023-02-09T17:34:59.575Z,80.10
2023-02-09T17:37:24.243Z,80.30
2023-02-09T17:39:50.839Z,80.80
2023-02-09T17:42:22.932Z,81.10
2023-02-09T17:44:47.558Z,81.00
2023-02-09T17:47:16.240Z,81.30
2023-02-09T17:49:41.069Z,81.50
2023-02-09T17:52:07.308Z,81.60
2023-02-09T17:54:33.676Z,81.20
2023-02-09T17:56:58.126Z,81.00
2023-02-09T17:59:23.043Z,81.60
2023-02-09T18:01:50.391Z,82.20
2023-02-09T18:04:18.657Z,83.00
2023-02-09T18:06:43.257Z,82.50
2023-02-09T18:09:11.218Z,81.80
2023-02-09T18:12:02.235Z,81.70
2023-02-09T18:14:28.834Z,81.90
2023-02-09T18:16:55.289Z,85.20
2023-02-09T18:19:20.031Z,83.40
2023-02-09T18:21:49.174Z,83.50
2023-02-09T18:24:15.429Z,82.90
2023-02-09T18:26:40.003Z,85.70
2023-02-09T18:29:04.943Z,87.50
2023-02-09T18:31:29.695Z,87.40
2023-02-09T18:33:54.287Z,84.60
2023-02-09T18:36:18.766Z,90.20
2023-02-09T18:38:43.262Z,88.40
2023-02-09T18:41:12.852Z,85.10
2023-02-09T18:43:37.496Z,83.10
2023-02-09T18:46:02.014Z,83.30
2023-02-09T18:48:27.283Z,83.70
2023-02-09T18:50:53.036Z,84.00
2023-02-09T18:53:19.441Z,84.20
2023-02-09T18:55:44.185Z,84.20
2023-02-09T18:58:10.433Z,83.50
2023-02-09T19:00:34.948Z,82.70
2023-02-09T19:03:00.300Z,82.70
2023-02-09T19:05:26.531Z,82.30
2023-02-09T19:07:50.977Z,82.80
2023-02-09T19:10:19.834Z,82.60
2023-02-09T19:12:45.491Z,82.20
2023-02-09T19:15:11.640Z,82.10
2023-02-09T19:17:36.500Z,83.10
2023-02-09T19:20:01.690Z,83.60
2023-02-09T19:22:27.032Z,84.50
2023-02-09T19:24:53.382Z,84.10
2023-02-09T19:27:18.993Z,84.10
2023-02-09T19:29:43.853Z,84.70
2023-02-09T19:32:10.319Z,84.30
2023-02-09T19:34:37.303Z,84.60
2023-02-09T19:37:02.390Z,85.10
2023-02-09T19:39:28.343Z,85.40
2023-02-09T19:41:53.105Z,85.70
2023-02-09T19:44:17.853Z,86.30
2023-02-09T19:46:42.745Z,86.70
2023-02-09T19:49:08.779Z,87.10
2023-02-09T19:51:33.194Z,87.00
2023-02-09T19:53:57.664Z,87.20
2023-02-09T19:56:23.484Z,87.50
2023-02-09T19:58:47.994Z,87.20
2023-02-09T20:01:12.809Z,87.80
2023-02-09T20:03:37.543Z,87.70
2023-02-09T20:06:07.688Z,87.60
2023-02-09T20:08:32.153Z,87.60
2023-02-09T20:10:56.554Z,87.20
2023-02-09T20:15:50.512Z,87.60
2023-02-09T20:18:17.669Z,86.90
2023-02-09T20:20:43.095Z,86.90
2023-02-09T20:23:09.430Z,86.10
2023-02-09T20:25:33.963Z,86.10
2023-02-09T20:27:58.539Z,86.70
2023-02-09T20:30:22.988Z,86.00
2023-02-09T20:32:47.667Z,86.30
2023-02-09T20:35:13.226Z,86.30
2023-02-09T20:37:38.086Z,86.90
2023-02-09T20:40:04.364Z,86.70
2023-02-09T20:42:46.430Z,87.40
2023-02-09T20:45:31.721Z,87.10
2023-02-09T20:47:56.178Z,87.40
2023-02-09T20:50:20.577Z,87.40
2023-02-09T20:52:45.768Z,87.70
2023-02-09T20:55:11.638Z,87.90
2023-02-09T20:57:37.222Z,87.90
2023-02-09T21:00:02.029Z,90.60
2023-02-09T21:02:31.096Z,87.90
2023-02-09T21:04:57.548Z,87.60
2023-02-09T21:07:22.039Z,88.00
2023-02-09T21:09:46.531Z,88.90
2023-02-09T21:12:14.542Z,88.10
2023-02-09T21:14:42.205Z,87.90
2023-02-09T21:17:07.467Z,87.40
2023-02-09T21:19:34.441Z,87.50
2023-02-09T21:21:58.950Z,87.60
2023-02-09T21:24:23.428Z,86.80
2023-02-09T21:26:48.244Z,85.90
2023-02-09T21:29:14.855Z,86.50
2023-02-09T21:31:39.399Z,87.10
2023-02-09T21:34:04.073Z,87.80
2023-02-09T21:36:28.469Z,88.90
2023-02-09T21:38:53.119Z,88.00
2023-02-09T21:41:33.468Z,86.40
2023-02-09T21:43:58.016Z,86.70
2023-02-09T21:46:24.899Z,87.70
2023-02-09T21:48:49.343Z,86.40
2023-02-09T21:51:13.760Z,87.00
2023-02-09T21:53:38.210Z,86.90
2023-02-09T21:56:06.655Z,85.70
2023-02-09T21:58:32.284Z,86.30
2023-02-09T22:00:58.857Z,86.90
2023-02-09T22:03:24.898Z,87.30
2023-02-09T22:05:57.230Z,87.60
2023-02-09T22:08:21.622Z,88.20
2023-02-09T22:10:48.929Z,88.00
2023-02-09T22:13:14.754Z,87.80
2023-02-09T22:15:41.600Z,87.40
2023-02-09T22:18:06.139Z,89.40
2023-02-09T22:20:32.045Z,89.20
2023-02-09T22:22:56.455Z,88.80
2023-02-09T22:25:22.664Z,87.90
2023-02-09T22:27:47.096Z,88.10
2023-02-09T22:30:12.426Z,89.00
2023-02-09T22:32:37.165Z,88.50
2023-02-09T22:35:01.704Z,88.60
2023-02-09T22:37:28.890Z,88.40
2023-02-09T22:39:53.728Z,89.30
2023-02-09T22:42:18.152Z,86.90
2023-02-09T22:44:42.593Z,87.40
2023-02-09T22:47:07.214Z,88.40
2023-02-09T22:49:31.773Z,88.80
2023-02-09T22:51:56.272Z,87.80
2023-02-09T22:54:22.267Z,89.00
2023-02-09T22:56:47.241Z,88.80
2023-02-09T22:59:12.836Z,88.50
2023-02-09T23:01:37.470Z,89.10
2023-02-09T23:04:02.034Z,89.10
2023-02-09T23:06:28.710Z,90.00
2023-02-09T23:08:54.518Z,90.10
2023-02-09T23:11:20.414Z,90.20
2023-02-09T23:13:45.865Z,90.00
2023-02-09T23:16:12.295Z,90.10
2023-02-09T23:18:36.891Z,89.80
2023-02-09T23:21:03.412Z,90.00
2023-02-09T23:23:27.745Z,90.00
2023-02-09T23:25:53.419Z,88.50
2023-02-09T23:28:19.796Z,89.30
2023-02-09T23:30:45.508Z,89.00
2023-02-09T23:33:09.972Z,88.30
2023-02-09T23:35:34.620Z,88.70
2023-02-09T23:37:58.955Z,89.30
2023-02-09T23:40:23.489Z,90.40
2023-02-09T23:42:47.900Z,90.10
2023-02-09T23:45:14.102Z,89.90
2023-02-09T23:47:38.650Z,89.70
2023-02-09T23:50:03.210Z,89.90
2023-02-09T23:52:27.712Z,90.50
2023-02-09T23:54:52.413Z,90.90
2023-02-09T23:57:18.163Z,90.50
2023-02-09T23:59:42.774Z,90.60
